Nearby METAR Reports

 

KTCM - Tacoma,Washington,
Updated: 08/17/2018 11:48am
Partly cloudy
Partly cloudy
 Wind from SW
Wind: SW 8 mph , 13 km/h
Temperature: 63°F , 17°C
Dew Point: 55°F , 13°C
Humidity: 77%
Barometer: 30.26 inHg , 1024.7 hPa
Clouds: Partly cloudy
Visibility: 10 miles , 16 km
Cloud details: Partly cloudy 2100 ft
2018/08/17 18:48 KTCM 171848Z AUTO 23007KT 10SM SCT021 17/13 A3026 RMK AO2 SLPNO $
KSEA - Seattle,Washington,
Updated: 08/17/2018 10:53am
Overcast
Overcast
 Wind from W
Wind: W 6 mph , 9 km/h
Temperature: 63°F , 17°C
Dew Point: 52°F , 11°C
Humidity: 68%
Barometer: 30.26 inHg , 1024.7 hPa
Clouds: Overcast
Visibility: 10 miles , 16 km
Cloud details: Mostly cloudy 1800 ft
Overcast 3000 ft
2018/08/17 17:53 KSEA 171753Z 26005KT 10SM BKN018 OVC030 17/11 A3026 RMK AO2 SLP253 T01670106 10167 20122 52009
 
KOLM - Olympia,Washington,
Updated: 08/17/2018 10:54am
Smoke, Overcast
Smoke, Overcast
 Wind from S
Wind: S 6 mph , 9 km/h
Temperature: 59°F , 15°C
Dew Point: 50°F , 10°C
Humidity: 72%
Barometer: 30.27 inHg , 1025.1 hPa
Summary: Smoke
Clouds: Overcast
Visibility: 10 miles , 16 km
Cloud details: Overcast 1800 ft
2018/08/17 17:54 KOLM 171754Z 19005KT 10SM FU OVC018 15/10 A3027 RMK AO2 SLP250 T01500100 10150 20106 52009
KHQM - Hoquiam,Washington,
Updated: 08/17/2018 10:53am
Overcast
Overcast
 Wind from WSW
Wind: WSW 9 mph , 15 km/h
Temperature: 61°F , 16°C
Dew Point: 54°F , 12°C
Humidity: 77%
Barometer: 30.27 inHg , 1025.1 hPa
Clouds: Overcast
Visibility: 7 miles , 11 km
Cloud details: Overcast 1900 ft
2018/08/17 17:53 KHQM 171753Z AUTO 25008KT 7SM OVC019 16/12 A3027 RMK AO2 SLP254 T01610117 10161 20139 51009
 
KGEG - Spokane,Washington,
Updated: 08/17/2018 10:53am
Haze, Smoke, Mostly cloudy
Haze, Smoke, Mostly cloudy
 Wind from SE
Wind: SE 7 mph , 11 km/h
Temperature: 73°F , 23°C
Dew Point: 52°F , 11°C
Humidity: 47%
Barometer: 30.11 inHg , 1019.6 hPa
Summary: Haze, Smoke
Clouds: Mostly cloudy
Visibility: 6 miles , 10 km
Cloud details: Few Clouds 10000 ft
Partly cloudy 15000 ft
Mostly cloudy 24000 ft
2018/08/17 17:53 KGEG 171753Z 14006KT 6SM HZ FU FEW100 SCT150 BKN240 23/11 A3011 RMK AO2 RAE07 SLP176 P0000 60000 T02330106 10233 20200 50005
KBLI - Bellingham,Washington,
Updated: 08/17/2018 10:53am
Few Clouds
Few Clouds
 Wind from S
Wind: S 10 mph , 17 km/h, Gust: 17 mph , 28 km/h
Temperature: 61°F , 16°C
Dew Point: 52°F , 11°C
Humidity: 72%
Barometer: 30.23 inHg , 1023.7 hPa
Clouds: Few Clouds
Visibility: 10 miles , 16 km
Cloud details: Few Clouds 1400 ft
2018/08/17 17:53 KBLI 171753Z 18009G15KT 150V220 10SM FEW014 16/11 A3023 RMK AO2 SLP242 T01560111 10161 20133 51013